Terminal Aerodrome Forecast
Issued by NWS

Home | Current Version | Previous Version | Text Only | Print | Product List | Glossary On
Versions: 1 2 3 4 5 6 7 8 9 10 11 12 13 14 15 16 17 18 19 20 21 22 23 24 25 26 27 28 29 30 31 32 33 34 35 36 37 38 39
000
FTAK31 PANC 180203 AAA
TAFAAQ
TAF AMD
PAAQ 180203Z 1802/1824 12015G25KT P6SM FEW040 SCT070 BKN200
     FM180600 05010G15KT P6SM SCT050 BKN080
     FM182100 14020G32KT P6SM SCT050 BKN090=

USA.gov is the U.S. government's official web portal to all federal, state and local government web resources and services.